Time;durP1;ratioP1;P1;durP2;ratioP2;P2;SDS_P1;SDS_P2;PMS_P1;PMS_P2;Temp;Humidity;BMP_temperature;BMP_pressure;BME280_temperature;BME280_humidity;BME280_pressure;Samples;Min_cycle;Max_cycle;Signal;HPM_P1;HPM_P2
2021/12/14 00:00:07;;;;;;;4.88;1.23;;;17.60;69.40;;;;;;5083977;28;20112;-85
2021/12/14 00:02:33;;;;;;;1.30;1.00;;;17.50;69.40;;;;;;5073784;28;20041;-85
2021/12/14 00:05:00;;;;;;;1.38;1.10;;;17.50;69.40;;;;;;5072927;28;20020;-84
2021/12/14 00:07:26;;;;;;;1.90;1.15;;;17.50;69.40;;;;;;5078388;28;20036;-90
2021/12/14 00:10:00;;;;;;;1.40;1.00;;;17.50;69.40;;;;;;5093055;28;20035;-78
2021/12/14 00:15:05;;;;;;;2.03;1.00;;;17.40;69.50;;;;;;5072684;28;20028;-78
2021/12/14 00:17:41;;;;;;;1.90;1.20;;;17.40;69.60;;;;;;5072629;28;20393;-79
2021/12/14 00:20:19;;;;;;;2.15;1.20;;;17.40;69.60;;;;;;5072618;28;20028;-82
2021/12/14 00:25:33;;;;;;;2.05;1.23;;;17.40;69.70;;;;;;5089337;28;20020;-77
2021/12/14 00:28:03;;;;;;;2.65;0.80;;;17.40;69.70;;;;;;5079730;28;20025;-83
2021/12/14 00:30:29;;;;;;;1.70;1.00;;;17.30;69.60;;;;;;5079974;28;20043;-81
2021/12/14 00:32:55;;;;;;;2.95;1.00;;;17.30;69.70;;;;;;5072019;28;20025;-79
2021/12/14 00:35:21;;;;;;;2.15;1.20;;;17.30;69.70;;;;;;5071781;28;20029;-79
2021/12/14 00:37:51;;;;;;;2.55;1.13;;;17.30;69.80;;;;;;5055400;28;20102;-79
2021/12/14 00:40:23;;;;;;;2.88;1.58;;;17.30;69.80;;;;;;5074754;28;20067;-79
2021/12/14 00:42:51;;;;;;;1.83;1.42;;;17.30;69.90;;;;;;5076110;28;20410;-79
2021/12/14 00:45:19;;;;;;;1.75;1.00;;;17.20;69.90;;;;;;5074317;28;20020;-80
2021/12/14 00:47:46;;;;;;;1.25;1.00;;;17.20;69.80;;;;;;5074035;28;20050;-83
2021/12/14 00:50:12;;;;;;;1.60;0.90;;;17.20;69.80;;;;;;5092803;28;20040;-89
2021/12/14 00:52:38;;;;;;;1.60;1.10;;;17.20;69.90;;;;;;5091958;28;20103;-86
2021/12/14 00:55:07;;;;;;;2.05;0.80;;;17.20;69.90;;;;;;5092197;28;20509;-76
2021/12/14 00:57:36;;;;;;;2.28;1.00;;;17.20;69.90;;;;;;5073009;28;20086;-87
2021/12/14 01:00:15;;;;;;;1.65;1.10;;;17.20;70.00;;;;;;5055090;28;20420;-89
2021/12/14 01:02:41;;;;;;;1.65;1.00;;;17.10;69.80;;;;;;5090469;28;20028;-78
2021/12/14 01:05:12;;;;;;;2.03;1.23;;;17.20;70.00;;;;;;5081754;28;20033;-88
2021/12/14 01:07:39;;;;;;;2.42;1.23;;;17.10;70.10;;;;;;5082895;28;20039;-84
2021/12/14 01:10:21;;;;;;;1.92;1.15;;;17.10;70.30;;;;;;5092269;28;20036;-86
2021/12/14 01:12:53;;;;;;;1.70;1.00;;;17.00;70.40;;;;;;5071885;28;20024;-84
2021/12/14 01:15:31;;;;;;;2.00;1.40;;;17.00;70.60;;;;;;5053592;28;20052;-88
2021/12/14 01:18:28;;;;;;;1.50;1.00;;;17.00;70.80;;;;;;5072719;28;20028;-81
2021/12/14 01:21:01;;;;;;;1.85;1.00;;;17.00;70.80;;;;;;5084800;28;20069;-84
2021/12/14 01:23:32;;;;;;;1.60;0.98;;;17.00;70.90;;;;;;5091250;28;20114;-87
2021/12/14 01:26:03;;;;;;;1.90;0.90;;;16.90;71.00;;;;;;5072100;28;20052;-89
2021/12/14 01:28:30;;;;;;;1.58;1.00;;;16.90;71.70;;;;;;5071607;28;20036;-83
2021/12/14 01:31:11;;;;;;;1.63;1.00;;;16.90;71.00;;;;;;5071680;28;20033;-81
2021/12/14 01:33:39;;;;;;;1.50;1.08;;;16.90;71.00;;;;;;5075154;28;20103;-92
2021/12/14 01:36:21;;;;;;;1.98;1.33;;;16.90;70.90;;;;;;5081626;28;20079;-81
2021/12/14 01:38:58;;;;;;;1.75;1.05;;;16.90;71.00;;;;;;5091978;28;20491;-86
2021/12/14 01:41:24;;;;;;;2.03;1.40;;;17.00;71.00;;;;;;5091667;28;20020;-85
2021/12/14 01:43:54;;;;;;;1.58;1.10;;;16.90;70.80;;;;;;5091453;28;20026;-85
2021/12/14 01:46:33;;;;;;;2.78;1.20;;;17.00;70.90;;;;;;5090774;28;20016;-91
2021/12/14 01:49:04;;;;;;;2.30;1.48;;;17.00;70.90;;;;;;5091748;28;20032;-87
2021/12/14 01:51:31;;;;;;;2.20;1.42;;;17.00;70.90;;;;;;5091616;28;20486;-80
2021/12/14 01:53:57;;;;;;;2.83;1.75;;;17.00;70.80;;;;;;5073773;28;20028;-90
2021/12/14 01:56:27;;;;;;;1.65;1.15;;;17.00;70.70;;;;;;5091209;28;20078;-85
2021/12/14 01:59:10;;;;;;;2.13;1.25;;;17.00;70.60;;;;;;5091779;28;20028;-93
2021/12/14 02:01:45;;;;;;;2.78;1.38;;;17.00;71.30;;;;;;5091272;28;20035;-86
2021/12/14 02:04:16;;;;;;;2.53;1.38;;;17.00;70.60;;;;;;5091630;28;20028;-84
2021/12/14 02:06:43;;;;;;;2.30;1.60;;;17.00;70.50;;;;;;5073235;28;20032;-87
2021/12/14 02:09:16;;;;;;;2.30;1.45;;;17.10;70.60;;;;;;5091476;28;20031;-84
2021/12/14 02:11:57;;;;;;;2.42;1.67;;;17.00;70.60;;;;;;5091685;28;20433;-85
2021/12/14 02:14:24;;;;;;;3.30;1.70;;;17.00;70.50;;;;;;5071597;28;20025;-85
2021/12/14 02:17:00;;;;;;;3.38;1.30;;;17.00;70.40;;;;;;5052801;28;20477;-86
2021/12/14 02:19:26;;;;;;;;;;;17.00;70.50;;;;;;5071692;28;20093;-84
2021/12/14 02:21:54;;;;;;;;;;;17.10;70.50;;;;;;5054070;28;20392;-92
2021/12/14 02:24:22;;;;;;;2.40;1.60;;;17.10;70.50;;;;;;5070867;28;19905;-78
2021/12/14 02:26:49;;;;;;;3.58;2.20;;;17.10;70.80;;;;;;5070808;28;20025;-84
2021/12/14 02:29:27;;;;;;;2.50;1.90;;;17.10;70.40;;;;;;5070855;28;20035;-79
2021/12/14 02:31:59;;;;;;;2.28;1.30;;;17.10;70.50;;;;;;5070928;28;20032;-81
2021/12/14 02:34:25;;;;;;;2.47;1.80;;;17.10;70.40;;;;;;5070752;28;20107;-78
2021/12/14 02:36:52;;;;;;;2.33;1.73;;;17.10;70.40;;;;;;5071040;28;20549;-77
2021/12/14 02:42:10;;;;;;;1.90;1.40;;;17.10;70.40;;;;;;5071587;28;20017;-77
2021/12/14 02:44:37;;;;;;;2.65;1.90;;;17.10;70.50;;;;;;5072476;28;20032;-80
2021/12/14 02:47:12;;;;;;;2.60;1.70;;;17.10;71.20;;;;;;5072120;28;20036;-77
2021/12/14 02:49:38;;;;;;;2.83;1.90;;;17.10;70.50;;;;;;5071887;28;20028;-80
2021/12/14 02:52:12;;;;;;;2.55;1.70;;;17.10;70.40;;;;;;5071253;28;20029;-79
2021/12/14 02:54:44;;;;;;;1.85;1.40;;;17.10;70.40;;;;;;5070402;28;20100;-81
2021/12/14 02:57:18;;;;;;;2.47;1.50;;;17.10;70.50;;;;;;5072295;28;20024;-78
2021/12/14 02:59:45;;;;;;;3.17;2.00;;;17.20;70.60;;;;;;5074007;28;20040;-78
2021/12/14 03:02:17;;;;;;;2.42;1.73;;;17.10;70.50;;;;;;5074453;28;20028;-79
2021/12/14 03:04:55;;;;;;;3.03;2.22;;;17.10;70.50;;;;;;5073928;28;20393;-75
2021/12/14 03:07:25;;;;;;;4.63;2.13;;;17.20;70.60;;;;;;5073741;28;20024;-80
2021/12/14 03:10:50;;;;;;;3.97;1.70;;;17.20;70.50;;;;;;5056190;28;20036;-79
2021/12/14 03:12:52;;;;;;;2.85;1.88;;;17.20;70.50;;;;;;5068227;28;20032;-79
2021/12/14 03:15:36;;;;;;;2.58;1.67;;;17.20;70.50;;;;;;5094022;28;20020;-79
2021/12/14 03:18:07;;;;;;;2.40;1.85;;;17.20;70.50;;;;;;5094006;28;20442;-83
2021/12/14 03:20:46;;;;;;;2.05;1.58;;;17.20;70.50;;;;;;5075543;28;20028;-80
2021/12/14 03:23:19;;;;;;;2.65;1.90;;;17.20;70.60;;;;;;5093999;28;20032;-81
2021/12/14 03:25:49;;;;;;;4.20;2.25;;;17.20;70.50;;;;;;5093894;28;20018;-78
2021/12/14 03:28:16;;;;;;;3.00;1.88;;;17.20;70.50;;;;;;5093488;28;20024;-78
2021/12/14 03:31:06;;;;;;;2.65;1.85;;;17.20;70.60;;;;;;5094059;28;20026;-80
2021/12/14 03:33:38;;;;;;;4.63;2.58;;;17.20;70.60;;;;;;5093527;28;20036;-80
2021/12/14 03:36:10;;;;;;;2.85;2.10;;;17.20;70.60;;;;;;5093743;28;20567;-78
2021/12/14 03:38:38;;;;;;;3.10;2.33;;;17.20;70.60;;;;;;5093321;28;20024;-80
2021/12/14 03:41:11;;;;;;;2.80;2.30;;;17.20;70.60;;;;;;5075354;28;20123;-83
2021/12/14 03:43:39;;;;;;;5.13;2.30;;;17.20;70.60;;;;;;5093334;28;20028;-76
2021/12/14 03:46:06;;;;;;;2.70;2.20;;;17.20;70.60;;;;;;5093181;28;20396;-78
2021/12/14 03:48:33;;;;;;;2.90;2.47;;;17.20;70.60;;;;;;5093039;28;20028;-78
2021/12/14 03:51:01;;;;;;;3.92;2.95;;;17.20;70.60;;;;;;5093072;28;20056;-84
2021/12/14 03:53:27;;;;;;;3.35;2.60;;;17.30;70.70;;;;;;5093160;28;20059;-79
2021/12/14 03:56:07;;;;;;;3.60;2.67;;;17.20;70.60;;;;;;5093074;28;20032;-79
2021/12/14 03:58:38;;;;;;;2.97;2.28;;;17.30;70.70;;;;;;5092608;28;20589;-85
2021/12/14 04:01:09;;;;;;;3.83;2.50;;;17.30;70.70;;;;;;5093195;28;20032;-83
2021/12/14 04:03:35;;;;;;;3.63;2.60;;;17.30;70.70;;;;;;5092812;28;20032;-79
2021/12/14 04:06:03;;;;;;;5.00;2.58;;;17.30;70.70;;;;;;5093190;28;20027;-79
2021/12/14 04:08:30;;;;;;;3.70;2.40;;;17.30;70.70;;;;;;5092051;28;20024;-86
2021/12/14 04:11:00;;;;;;;4.00;3.28;;;17.30;70.70;;;;;;5093428;28;20507;-80
2021/12/14 04:13:30;;;;;;;4.50;2.83;;;17.30;70.80;;;;;;5063906;28;20024;-85
2021/12/14 04:15:56;;;;;;;3.67;2.70;;;17.30;70.70;;;;;;5073010;28;20102;-86
2021/12/14 04:18:24;;;;;;;3.90;3.15;;;17.30;70.70;;;;;;5072619;28;20052;-83
2021/12/14 04:20:52;;;;;;;4.93;3.28;;;17.30;70.70;;;;;;5072745;28;20419;-82
2021/12/14 04:23:24;;;;;;;3.83;3.05;;;17.30;70.70;;;;;;5054543;28;20062;-84
2021/12/14 04:25:53;;;;;;;3.38;2.70;;;17.30;70.70;;;;;;5073041;28;20040;-88
2021/12/14 04:28:22;;;;;;;4.28;2.95;;;17.30;70.70;;;;;;5072600;28;20021;-86
2021/12/14 04:30:48;;;;;;;4.13;3.00;;;17.30;70.70;;;;;;5072702;28;20116;-86
2021/12/14 04:33:18;;;;;;;4.10;3.22;;;17.30;70.70;;;;;;5072625;28;20028;-84
2021/12/14 04:35:47;;;;;;;4.63;3.47;;;17.30;70.70;;;;;;5072862;28;20036;-84
2021/12/14 04:38:21;;;;;;;5.57;3.25;;;17.30;70.70;;;;;;5072703;28;20016;-75
2021/12/14 04:52:14;;;;;;;4.50;3.53;;;17.30;70.70;;;;;;5030897;28;20021;-87
2021/12/14 04:54:49;;;;;;;5.10;3.78;;;17.30;70.70;;;;;;5030767;28;20449;-90
2021/12/14 04:57:18;;;;;;;4.88;3.63;;;17.30;70.70;;;;;;5053052;28;20109;-79
2021/12/14 04:59:45;;;;;;;4.40;3.30;;;17.30;70.70;;;;;;5072252;28;20396;-81
2021/12/14 05:02:16;;;;;;;4.05;3.28;;;17.30;70.70;;;;;;5072569;28;20028;-88
2021/12/14 05:04:42;;;;;;;4.93;3.63;;;17.30;70.70;;;;;;5072587;28;20029;-90
2021/12/14 05:09:53;;;;;;;5.40;3.85;;;17.30;70.60;;;;;;5072808;28;20125;-87
2021/12/14 05:12:23;;;;;;;5.50;3.97;;;17.30;70.60;;;;;;5073863;28;20048;-92
2021/12/14 05:14:49;;;;;;;4.63;3.50;;;17.30;70.60;;;;;;5092517;28;20020;-81
2021/12/14 05:17:21;;;;;;;5.38;4.25;;;17.40;70.70;;;;;;5092226;28;20069;-89
2021/12/14 05:19:51;;;;;;;4.40;3.90;;;17.30;70.60;;;;;;5075006;28;20024;-83
2021/12/14 05:22:38;;;;;;;5.55;3.65;;;17.40;70.60;;;;;;5093509;28;20541;-91
2021/12/14 05:25:12;;;;;;;6.22;4.55;;;17.30;70.50;;;;;;5096075;28;20032;-85
2021/12/14 05:27:42;;;;;;;5.72;4.75;;;17.30;70.50;;;;;;5056605;28;20055;-91
2021/12/14 05:30:19;;;;;;;5.38;4.15;;;17.30;70.50;;;;;;5079497;28;20044;-80
2021/12/14 05:32:46;;;;;;;5.57;4.43;;;17.30;70.50;;;;;;5080611;28;20407;-81
2021/12/14 05:35:15;;;;;;;6.30;4.10;;;17.30;70.50;;;;;;5072983;28;20485;-80
2021/12/14 05:38:00;;;;;;;4.95;3.50;;;17.30;70.60;;;;;;5075362;28;20031;-76
2021/12/14 05:43:09;;;;;;;6.38;4.32;;;17.30;70.60;;;;;;5091298;28;20097;-82
2021/12/14 05:45:42;;;;;;;6.88;4.95;;;17.40;70.60;;;;;;5079231;28;20033;-78
2021/12/14 05:48:15;;;;;;;6.97;4.97;;;17.30;70.60;;;;;;5083943;28;20115;-82
2021/12/14 05:50:47;;;;;;;5.78;4.68;;;17.40;70.60;;;;;;5069875;28;20550;-80
2021/12/14 05:53:38;;;;;;;7.40;4.05;;;17.40;70.60;;;;;;5053187;28;20032;-75
2021/12/14 05:56:11;;;;;;;5.85;4.60;;;17.40;70.50;;;;;;5074505;28;20112;-78
2021/12/14 05:58:37;;;;;;;6.10;4.25;;;17.40;70.60;;;;;;5079169;28;20116;-78
2021/12/14 06:01:28;;;;;;;5.88;4.60;;;17.40;70.50;;;;;;5071977;28;20044;-81
2021/12/14 06:04:01;;;;;;;5.13;4.10;;;17.40;70.50;;;;;;5053399;28;20031;-85
2021/12/14 06:06:34;;;;;;;7.00;4.68;;;17.40;70.50;;;;;;5083643;28;20507;-90
2021/12/14 06:09:23;;;;;;;5.25;3.90;;;17.40;70.40;;;;;;5091706;28;20089;-89
2021/12/14 06:11:52;;;;;;;5.97;4.43;;;17.40;70.50;;;;;;5079482;28;20508;-91
2021/12/14 06:14:21;;;;;;;5.80;4.22;;;17.40;70.40;;;;;;5074439;28;20032;-87
2021/12/14 06:16:49;;;;;;;7.05;4.97;;;17.50;70.50;;;;;;5089215;28;20512;-82
2021/12/14 06:19:24;;;;;;;6.00;4.63;;;17.50;70.40;;;;;;5083843;28;20085;-82
2021/12/14 06:22:00;;;;;;;4.97;4.05;;;17.50;70.40;;;;;;5080208;28;20103;-89
2021/12/14 06:24:28;;;;;;;6.35;4.57;;;17.50;70.40;;;;;;5090380;28;20104;-87
2021/12/14 06:26:57;;;;;;;5.88;4.20;;;17.50;70.50;;;;;;5080972;28;20043;-82
2021/12/14 06:29:29;;;;;;;6.05;4.30;;;17.50;71.10;;;;;;5085044;28;20036;-84
2021/12/14 06:31:56;;;;;;;5.45;4.07;;;17.50;70.30;;;;;;5091801;28;20020;-83
2021/12/14 06:34:29;;;;;;;5.57;4.20;;;17.50;70.30;;;;;;5078910;28;20085;-83
2021/12/14 06:37:03;;;;;;;5.00;3.72;;;17.50;70.30;;;;;;5075344;28;20075;-80
2021/12/14 06:39:55;;;;;;;5.78;4.32;;;17.50;70.40;;;;;;5074367;28;20472;-84
2021/12/14 06:42:21;;;;;;;5.45;3.83;;;17.50;70.30;;;;;;5089311;28;20032;-81
2021/12/14 06:44:46;;;;;;;6.55;4.57;;;17.60;70.50;;;;;;5082133;28;20400;-82
2021/12/14 06:47:12;;;;;;;9.25;4.45;;;17.60;70.50;;;;;;5079808;28;20035;-83
2021/12/14 06:49:38;;;;;;;5.90;4.40;;;17.60;70.50;;;;;;5084226;28;20043;-88
2021/12/14 06:52:04;;;;;;;5.80;4.72;;;17.60;70.50;;;;;;5086402;28;20028;-81
2021/12/14 06:54:31;;;;;;;6.80;5.40;;;17.60;70.60;;;;;;5086172;28;20035;-83
2021/12/14 06:57:00;;;;;;;7.07;4.60;;;17.70;70.70;;;;;;5086803;28;20021;-83
2021/12/14 06:59:27;;;;;;;8.13;4.45;;;17.70;70.80;;;;;;5079562;28;20031;-80
2021/12/14 07:02:00;;;;;;;6.13;4.60;;;17.70;70.90;;;;;;5085751;28;20025;-78
2021/12/14 07:04:30;;;;;;;5.80;4.40;;;17.70;70.90;;;;;;5064438;28;20029;-81
2021/12/14 07:06:59;;;;;;;6.97;4.63;;;17.70;71.00;;;;;;5082008;28;20028;-86
2021/12/14 07:09:29;;;;;;;7.75;4.10;;;17.70;71.10;;;;;;5085049;28;20036;-84
2021/12/14 07:11:59;;;;;;;5.32;3.80;;;17.80;71.20;;;;;;5084336;28;20434;-85
2021/12/14 07:14:28;;;;;;;6.95;4.75;;;17.80;71.20;;;;;;5082115;28;20663;-87
2021/12/14 07:16:57;;;;;;;5.38;4.43;;;17.80;71.40;;;;;;5082430;28;20428;-92
2021/12/14 07:20:00;;;;;;;5.78;4.47;;;17.80;71.30;;;;;;5093539;28;20032;-86
2021/12/14 07:22:31;;;;;;;4.80;3.65;;;17.80;71.40;;;;;;5010716;28;20026;-86
2021/12/14 07:25:01;;;;;;;5.70;4.20;;;17.80;71.20;;;;;;5063586;28;20041;-87
2021/12/14 07:27:42;;;;;;;5.97;4.82;;;17.80;71.30;;;;;;5075889;28;20060;-88
2021/12/14 07:30:10;;;;;;;8.45;5.13;;;17.80;71.30;;;;;;5080499;28;20051;-84
2021/12/14 07:32:52;;;;;;;7.53;5.45;;;17.80;71.20;;;;;;5089923;28;20023;-87
2021/12/14 07:35:21;;;;;;;5.90;4.63;;;17.80;71.40;;;;;;5093715;28;20035;-88
2021/12/14 07:37:47;;;;;;;7.65;6.00;;;17.80;71.30;;;;;;5080469;28;20021;-85
2021/12/14 07:40:14;;;;;;;7.07;4.82;;;17.80;71.20;;;;;;5081772;28;20024;-84
2021/12/14 07:42:40;;;;;;;7.20;5.20;;;17.80;71.10;;;;;;5082642;28;20025;-87
2021/12/14 07:45:07;;;;;;;7.43;5.30;;;17.80;71.20;;;;;;5073292;28;20032;-86
2021/12/14 07:47:33;;;;;;;6.30;5.32;;;17.80;71.20;;;;;;5073693;28;20871;-91
2021/12/14 07:50:01;;;;;;;6.88;5.25;;;17.80;71.20;;;;;;5073457;28;20063;-84
2021/12/14 07:52:35;;;;;;;6.53;4.85;;;17.80;71.20;;;;;;5079105;28;20020;-86
2021/12/14 07:55:11;;;;;;;7.72;5.45;;;17.80;71.10;;;;;;5073226;28;20021;-88
2021/12/14 07:57:37;;;;;;;;;;;17.80;71.20;;;;;;5074402;28;20062;-85
2021/12/14 08:00:18;;;;;;;11.13;8.23;;;17.80;71.20;;;;;;5079412;28;19920;-88
2021/12/14 08:02:48;;;;;;;18.85;13.35;;;17.80;71.20;;;;;;5083025;28;20017;-87
2021/12/14 08:05:22;;;;;;;24.45;16.80;;;17.80;71.20;;;;;;5072679;28;20023;-86
2021/12/14 08:08:13;;;;;;;39.75;24.98;;;17.70;71.10;;;;;;5073062;28;20029;-89
2021/12/14 08:10:46;;;;;;;39.55;28.42;;;17.70;71.20;;;;;;5055377;28;20032;-90
2021/12/14 08:13:17;;;;;;;38.35;25.30;;;17.70;71.10;;;;;;5073331;28;20058;-89
2021/12/14 08:15:56;;;;;;;37.30;24.83;;;17.70;71.10;;;;;;5090046;28;20500;-87
2021/12/14 08:18:24;;;;;;;31.70;23.48;;;17.70;71.40;;;;;;5090158;28;20055;-84
2021/12/14 08:21:05;;;;;;;38.20;24.83;;;17.70;71.20;;;;;;5054552;28;20029;-87
2021/12/14 08:23:40;;;;;;;34.30;23.02;;;17.70;71.20;;;;;;5072049;28;20085;-85
2021/12/14 08:26:15;;;;;;;32.30;22.15;;;17.60;71.20;;;;;;5072553;28;20026;-86
2021/12/14 08:29:04;;;;;;;33.92;22.05;;;17.60;71.10;;;;;;5072809;28;20068;-86
2021/12/14 08:31:40;;;;;;;30.45;20.70;;;17.60;71.20;;;;;;5092512;28;20028;-85
2021/12/14 08:34:10;;;;;;;30.40;21.02;;;17.60;71.20;;;;;;5092420;28;20507;-80
2021/12/14 08:36:47;;;;;;;26.08;19.15;;;17.60;71.20;;;;;;5092353;28;20099;-81
2021/12/14 08:39:13;;;;;;;24.92;18.10;;;17.60;71.20;;;;;;5092211;28;20020;-79
2021/12/14 08:41:47;;;;;;;25.25;17.65;;;17.60;71.30;;;;;;5088565;28;20194;-80
2021/12/14 08:44:20;;;;;;;26.58;18.95;;;17.60;71.20;;;;;;5090725;28;20028;-78
2021/12/14 08:46:49;;;;;;;25.05;17.38;;;17.60;71.20;;;;;;5082923;28;20033;-80
2021/12/14 08:49:17;;;;;;;23.35;16.10;;;17.60;71.20;;;;;;5071564;28;20484;-80
2021/12/14 08:51:46;;;;;;;21.15;14.77;;;17.60;71.20;;;;;;5073048;28;20060;-79
2021/12/14 08:54:16;;;;;;;24.20;17.10;;;17.50;71.20;;;;;;5071823;28;20028;-80
2021/12/14 08:57:05;;;;;;;21.27;15.30;;;17.60;71.20;;;;;;5072151;28;20241;-81
2021/12/14 08:59:31;;;;;;;19.92;14.43;;;17.50;71.20;;;;;;5078166;28;20601;-80
2021/12/14 09:02:00;;;;;;;20.08;15.57;;;17.50;71.20;;;;;;5092067;28;20032;-85
2021/12/14 09:04:31;;;;;;;18.77;13.80;;;17.50;71.20;;;;;;5078967;28;20035;-83
2021/12/14 09:07:01;;;;;;;20.65;14.20;;;17.50;71.30;;;;;;5054008;28;20020;-87
2021/12/14 09:09:27;;;;;;;20.05;13.30;;;17.50;71.40;;;;;;5053646;28;20116;-86
2021/12/14 09:12:24;;;;;;;17.63;12.23;;;17.50;71.40;;;;;;5072226;28;20016;-85
2021/12/14 09:14:52;;;;;;;17.88;11.90;;;17.50;71.40;;;;;;5064110;28;20028;-90
2021/12/14 09:17:22;;;;;;;17.98;11.88;;;17.40;72.10;;;;;;5073240;28;20023;-86
2021/12/14 09:19:58;;;;;;;18.38;12.07;;;17.40;71.40;;;;;;5071790;28;20028;-89
2021/12/14 09:22:31;;;;;;;15.90;11.38;;;17.40;71.40;;;;;;5071575;28;20035;-88
2021/12/14 09:24:57;;;;;;;16.30;12.32;;;17.40;71.50;;;;;;5072059;28;20035;-82
2021/12/14 09:27:25;;;;;;;17.98;11.75;;;17.40;71.40;;;;;;5071375;28;20035;-88
2021/12/14 09:29:51;;;;;;;16.20;10.20;;;17.40;71.40;;;;;;5071871;28;20036;-89
2021/12/14 09:32:24;;;;;;;14.45;10.07;;;17.30;71.50;;;;;;5071493;28;20031;-77
2021/12/14 09:34:50;;;;;;;14.27;9.90;;;17.30;71.50;;;;;;5074645;28;20032;-90
2021/12/14 09:37:18;;;;;;;15.07;9.80;;;17.30;71.50;;;;;;5082906;28;20430;-79
2021/12/14 09:39:57;;;;;;;17.33;10.15;;;17.30;71.40;;;;;;5092099;28;20105;-77
2021/12/14 09:42:29;;;;;;;12.40;9.38;;;17.30;71.50;;;;;;5091395;28;20099;-79
2021/12/14 09:44:58;;;;;;;20.27;9.45;;;17.30;72.10;;;;;;5081007;28;20044;-77
2021/12/14 09:47:29;;;;;;;13.65;8.85;;;17.30;71.40;;;;;;5065953;28;20024;-90
2021/12/14 09:49:56;;;;;;;13.60;8.98;;;17.30;71.40;;;;;;5091450;28;20115;-78
2021/12/14 09:52:27;;;;;;;11.18;8.73;;;17.30;71.40;;;;;;5078889;28;20024;-91
2021/12/14 09:54:54;;;;;;;11.90;8.93;;;17.30;71.40;;;;;;5071320;28;20060;-78
2021/12/14 09:57:30;;;;;;;13.10;8.68;;;17.20;71.30;;;;;;5070865;28;20059;-78
2021/12/14 09:59:59;;;;;;;12.35;8.32;;;17.20;71.30;;;;;;5085256;28;20032;-78
2021/12/14 10:02:36;;;;;;;11.85;8.15;;;17.20;71.30;;;;;;5072794;28;20020;-90
2021/12/14 10:05:34;;;;;;;11.98;8.30;;;17.20;71.30;;;;;;5091465;28;20031;-85
2021/12/14 10:08:00;;;;;;;12.50;8.15;;;17.20;71.20;;;;;;5086943;28;20033;-77
2021/12/14 10:10:29;;;;;;;10.43;6.88;;;17.20;71.30;;;;;;5089613;28;20036;-77
2021/12/14 10:12:56;;;;;;;10.32;7.55;;;17.20;71.30;;;;;;5075290;28;20017;-90
2021/12/14 10:15:30;;;;;;;8.80;6.80;;;17.20;71.20;;;;;;5077336;28;20021;-77
2021/12/14 10:18:03;;;;;;;10.68;7.13;;;17.20;71.30;;;;;;5095214;28;20020;-77
2021/12/14 10:20:36;;;;;;;9.48;7.18;;;17.20;71.30;;;;;;5095043;28;20032;-77
2021/12/14 10:23:03;;;;;;;10.75;7.55;;;17.20;71.20;;;;;;5094441;28;20173;-80
2021/12/14 10:25:29;;;;;;;10.32;6.40;;;17.20;71.30;;;;;;5076650;28;20020;-79
2021/12/14 10:27:55;;;;;;;9.80;6.20;;;17.20;71.30;;;;;;5076933;28;20031;-77
2021/12/14 10:30:38;;;;;;;10.57;6.57;;;17.20;71.30;;;;;;5080773;28;20123;-77
2021/12/14 10:33:05;;;;;;;10.20;7.03;;;17.20;71.20;;;;;;5074621;28;20027;-78
2021/12/14 10:35:42;;;;;;;9.88;6.28;;;17.20;71.30;;;;;;5074365;28;20032;-76
2021/12/14 10:43:27;;;;;;;10.52;6.95;;;17.20;71.20;;;;;;5081650;28;20568;-87
2021/12/14 10:46:21;;;;;;;8.38;6.40;;;17.20;71.20;;;;;;5091525;28;20484;-78
2021/12/14 10:48:49;;;;;;;9.60;5.85;;;17.20;71.20;;;;;;5089564;28;20036;-80
2021/12/14 10:51:17;;;;;;;8.52;5.82;;;17.20;71.20;;;;;;5094382;28;20028;-78
2021/12/14 10:53:47;;;;;;;9.27;6.07;;;17.20;71.30;;;;;;5094404;28;20024;-78
2021/12/14 10:56:20;;;;;;;8.18;5.95;;;17.20;71.30;;;;;;5094778;28;20032;-78
2021/12/14 10:58:52;;;;;;;6.72;4.88;;;17.20;71.30;;;;;;5090369;28;20021;-86
2021/12/14 11:01:25;;;;;;;7.40;5.00;;;17.20;71.30;;;;;;5072951;28;20029;-86
2021/12/14 11:03:56;;;;;;;6.88;5.15;;;17.20;71.30;;;;;;5073826;28;20480;-85
2021/12/14 11:06:28;;;;;;;7.65;5.70;;;17.20;71.30;;;;;;5072733;28;20454;-86
2021/12/14 11:11:34;;;;;;;6.78;5.43;;;17.20;71.30;;;;;;5073142;28;20480;-87
2021/12/14 11:14:02;;;;;;;7.72;5.50;;;17.20;71.20;;;;;;5065745;28;20024;-85
2021/12/14 11:19:42;;;;;;;8.40;5.72;;;17.20;71.90;;;;;;5092506;28;20035;-87
2021/12/14 11:22:18;;;;;;;6.10;5.10;;;17.20;72.40;;;;;;5073052;28;20042;-88
2021/12/14 11:24:54;;;;;;;8.18;5.00;;;17.20;72.70;;;;;;5077268;28;20467;-79
2021/12/14 11:27:24;;;;;;;8.90;5.57;;;17.20;73.00;;;;;;5088554;28;20032;-84
2021/12/14 11:30:11;;;;;;;6.93;4.18;;;17.20;73.10;;;;;;5092442;28;20509;-83
2021/12/14 11:32:41;;;;;;;6.57;4.68;;;17.20;73.10;;;;;;5092228;28;20438;-83
2021/12/14 11:35:41;;;;;;;7.80;5.15;;;17.20;73.10;;;;;;5090739;28;20588;-81
2021/12/14 11:38:25;;;;;;;7.43;5.07;;;17.30;73.20;;;;;;5056755;28;20040;-83
2021/12/14 11:40:51;;;;;;;8.45;4.78;;;17.30;73.20;;;;;;5072349;28;20020;-82
2021/12/14 11:43:22;;;;;;;5.68;4.32;;;17.30;73.40;;;;;;5071776;28;20365;-83
2021/12/14 11:45:49;;;;;;;6.72;4.43;;;17.30;73.40;;;;;;5086873;28;20491;-79
2021/12/14 11:48:30;;;;;;;7.00;4.85;;;17.30;73.50;;;;;;5080924;28;20032;-83
2021/12/14 11:50:57;;;;;;;6.32;4.22;;;17.30;73.90;;;;;;5063208;28;20096;-81
2021/12/14 11:53:23;;;;;;;6.22;4.28;;;17.30;73.50;;;;;;5091964;28;20031;-83
2021/12/14 11:56:12;;;;;;;7.93;4.18;;;17.30;73.30;;;;;;5092390;28;20028;-82
2021/12/14 11:58:51;;;;;;;6.83;4.57;;;17.30;73.40;;;;;;5040904;28;1154504;-83
2021/12/14 12:01:31;;;;;;;6.18;4.05;;;17.30;73.40;;;;;;5082309;28;20036;-83
2021/12/14 12:03:59;;;;;;;8.02;4.03;;;17.30;73.40;;;;;;5082385;28;20032;-83
2021/12/14 12:09:28;;;;;;;7.25;4.32;;;17.30;73.20;;;;;;5080522;28;20444;-83
2021/12/14 12:09:46;;;;;;;8.02;4.10;;;17.40;73.10;;;;;;5081314;28;20041;-82
2021/12/14 12:12:20;;;;;;;7.10;4.22;;;17.50;73.00;;;;;;5081832;28;20031;-82
2021/12/14 12:14:59;;;;;;;5.13;3.60;;;17.60;73.10;;;;;;5062621;28;20028;-84
2021/12/14 12:17:30;;;;;;;5.97;4.47;;;17.60;72.80;;;;;;5082584;28;20027;-84
2021/12/14 12:20:05;;;;;;;6.32;4.07;;;17.70;72.90;;;;;;5082178;28;20020;-83
2021/12/14 12:22:37;;;;;;;13.40;4.47;;;17.70;72.60;;;;;;5081026;28;20020;-83
2021/12/14 12:25:07;;;;;;;6.40;4.53;;;17.70;73.10;;;;;;5079937;28;20064;-82
2021/12/14 12:27:49;;;;;;;8.95;4.25;;;17.70;73.20;;;;;;5062126;28;20781;-83
2021/12/14 12:30:22;;;;;;;7.57;4.13;;;17.60;73.10;;;;;;5081122;28;20042;-82
2021/12/14 12:32:48;;;;;;;6.75;4.50;;;17.60;73.40;;;;;;5080035;28;20012;-83
2021/12/14 12:35:41;;;;;;;5.60;3.80;;;17.60;73.40;;;;;;5080447;28;20029;-84
2021/12/14 12:38:42;;;;;;;6.65;4.78;;;17.60;73.40;;;;;;5061715;28;20016;-85
2021/12/14 12:41:16;;;;;;;9.77;4.38;;;17.60;73.40;;;;;;5020162;28;20029;-85
2021/12/14 12:43:50;;;;;;;9.85;4.53;;;17.60;73.20;;;;;;5082404;28;20020;-84
2021/12/14 12:46:39;;;;;;;7.70;4.65;;;17.60;73.40;;;;;;5071572;28;20169;-84
2021/12/14 12:49:07;;;;;;;7.38;4.38;;;17.60;73.20;;;;;;5072049;28;20102;-86
2021/12/14 12:51:42;;;;;;;6.45;4.55;;;17.60;73.20;;;;;;5073366;28;20819;-86
2021/12/14 12:54:31;;;;;;;7.78;4.72;;;17.50;73.10;;;;;;5082972;28;20024;-83
2021/12/14 12:57:18;;;;;;;10.77;4.78;;;17.50;73.40;;;;;;5081164;28;20024;-84
2021/12/14 12:59:50;;;;;;;6.97;4.13;;;17.60;73.60;;;;;;5090291;28;20028;-85
2021/12/14 13:02:32;;;;;;;5.72;4.47;;;17.50;73.00;;;;;;5059925;28;20063;-89
2021/12/14 13:05:20;;;;;;;8.82;4.13;;;17.50;73.50;;;;;;5072570;28;20611;-84
2021/12/14 13:08:16;;;;;;;5.68;4.13;;;17.50;73.60;;;;;;5071116;28;20047;-85
2021/12/14 13:11:02;;;;;;;7.80;4.65;;;17.50;73.60;;;;;;5071095;28;20194;-84
2021/12/14 13:13:32;;;;;;;5.85;4.43;;;17.60;73.70;;;;;;5071514;28;20495;-81
2021/12/14 13:16:17;;;;;;;6.60;4.50;;;17.60;73.90;;;;;;5085104;28;20111;-85
2021/12/14 13:18:48;;;;;;;5.60;4.18;;;17.60;73.80;;;;;;5088297;28;20024;-83
2021/12/14 13:21:35;;;;;;;6.32;4.35;;;17.60;74.00;;;;;;5068589;28;20473;-85
2021/12/14 13:24:12;;;;;;;6.72;4.13;;;17.60;74.00;;;;;;5087106;28;20106;-85
2021/12/14 13:26:56;;;;;;;7.55;4.28;;;17.60;74.10;;;;;;5092060;28;20476;-83
2021/12/14 13:29:31;;;;;;;7.25;4.07;;;17.60;74.10;;;;;;5088541;28;20036;-84
2021/12/14 13:32:44;;;;;;;8.15;4.22;;;17.60;74.10;;;;;;5071383;28;20029;-90
2021/12/14 13:35:21;;;;;;;6.00;4.45;;;17.60;74.10;;;;;;5062527;28;20111;-89
2021/12/14 13:37:50;;;;;;;6.85;4.38;;;17.60;74.10;;;;;;5063224;28;20033;-86
2021/12/14 13:40:19;;;;;;;5.30;3.88;;;17.60;74.10;;;;;;5052879;28;20024;-88
2021/12/14 13:43:11;;;;;;;5.50;3.95;;;17.60;74.10;;;;;;5072402;28;20052;-88
2021/12/14 13:45:41;;;;;;;6.50;3.88;;;17.50;73.90;;;;;;5073691;28;20032;-87
2021/12/14 13:48:09;;;;;;;6.25;3.92;;;17.60;74.00;;;;;;5071342;28;20025;-90
2021/12/14 13:50:41;;;;;;;5.20;3.75;;;17.60;73.90;;;;;;5068263;28;20055;-89